Map

Track Data

SID SEASON NUMBER BASIN SUBBASIN NAME ISO_TIME NATURE LAT LON WMO_WIND WMO_PRES WMO_AGENCY TRACK_TYPE DIST2LAND LANDFALL IFLAG USA_AGENCY USA_ATCF_ID USA_LAT USA_LON USA_RECORD USA_STATUS USA_WIND USA_PRES USA_SSHS USA_R34_NE USA_R34_SE USA_R34_SW USA_R34_NW USA_R50_NE USA_R50_SE USA_R50_SW USA_R50_NW USA_R64_NE USA_R64_SE USA_R64_SW USA_R64_NW USA_POCI USA_ROCI USA_RMW USA_EYE TOKYO_LAT TOKYO_LON TOKYO_GRADE TOKYO_WIND TOKYO_PRES TOKYO_R50_DIR TOKYO_R50_LONG TOKYO_R50_SHORT TOKYO_R30_DIR TOKYO_R30_LONG TOKYO_R30_SHORT TOKYO_LAND CMA_LAT CMA_LON CMA_CAT CMA_WIND CMA_PRES HKO_LAT HKO_LON HKO_CAT HKO_WIND HKO_PRES NEWDELHI_LAT NEWDELHI_LON NEWDELHI_GRADE NEWDELHI_WIND NEWDELHI_PRES NEWDELHI_CI NEWDELHI_DP NEWDELHI_POCI REUNION_LAT REUNION_LON REUNION_TYPE REUNION_WIND REUNION_PRES REUNION_TNUM REUNION_CI REUNION_RMW REUNION_R34_NE REUNION_R34_SE REUNION_R34_SW REUNION_R34_NW REUNION_R50_NE REUNION_R50_SE REUNION_R50_SW REUNION_R50_NW REUNION_R64_NE REUNION_R64_SE REUNION_R64_SW REUNION_R64_NW BOM_LAT BOM_LON BOM_TYPE BOM_WIND BOM_PRES BOM_TNUM BOM_CI BOM_RMW BOM_R34_NE BOM_R34_SE BOM_R34_SW BOM_R34_NW BOM_R50_NE BOM_R50_SE BOM_R50_SW BOM_R50_NW BOM_R64_NE BOM_R64_SE BOM_R64_SW BOM_R64_NW BOM_ROCI BOM_POCI BOM_EYE BOM_POS_METHOD BOM_PRES_METHOD NADI_LAT NADI_LON NADI_CAT NADI_WIND NADI_PRES WELLINGTON_LAT WELLINGTON_LON WELLINGTON_WIND WELLINGTON_PRES DS824_LAT DS824_LON DS824_STAGE DS824_WIND DS824_PRES TD9636_LAT TD9636_LON TD9636_STAGE TD9636_WIND TD9636_PRES TD9635_LAT TD9635_LON TD9635_WIND TD9635_PRES TD9635_ROCI NEUMANN_LAT NEUMANN_LON NEUMANN_CLASS NEUMANN_WIND NEUMANN_PRES MLC_LAT MLC_LON MLC_CLASS MLC_WIND MLC_PRES USA_GUST BOM_GUST BOM_GUST_PER REUNION_GUST REUNION_GUST_PER USA_SEAHGT USA_SEARAD_NE USA_SEARAD_SE USA_SEARAD_SW USA_SEARAD_NW STORM_SPEED STORM_DIR
1974227N17126 1974 80 WP MM NADINE 1974-08-15 00:00:00 TS 16.5000 126.400 996 tokyo main 359 359 OOOO_____OOO__ jtwc_wp WP171974 16.4000 125.600 30 -1 16.5000 127.200 2 996 0 0 0 16.7000 127.500 2 38 995 16.7000 127.700 TD 25 996 16.4000 125.600 TC 30 16.4000 125.600 1 30 16.4000 125.600 30 996 180 24 100
1974227N17126 1974 80 WP MM NADINE 1974-08-15 03:00:00 TS 16.3012 127.639 main 436 436 PPPP_____PPP__ WP171974 16.1963 127.258 32 -1 16.3989 128.230 2 995 0 0 16.4432 128.285 2 38 995 16.4549 128.280 TD 27 995 16.1963 127.258 TC 32 16.2225 126.901 1 32 16.1963 127.258 32 994 180 23 100
1974227N17126 1974 80 WP MM NADINE 1974-08-15 06:00:00 TS 16.1061 128.800 994 tokyo main 533 533 OOOO_____OPO__ jtwc_wp WP171974 16.0000 128.700 35 0 16.3000 129.200 9 994 0 0 0 16.2000 129.100 2 38 995 16.2000 129.000 TD 30 994 16.0000 128.700 TC 35 16.0427 128.201 1 35 16.0000 128.700 35 993 180 22 100
1974227N17126 1974 80 WP MM NADINE 1974-08-15 09:00:00 TS 15.9255 129.846 main 621 621 PPPP_____PPP__ WP171974 15.8329 129.802 37 0 16.1940 130.084 9 992 0 0 15.9842 129.982 2 38 994 15.9352 129.948 TD 32 992 15.8329 129.802 TC 37 15.8667 129.501 1 37 15.8329 129.802 37 991 180 20 100
1974227N17126 1974 80 WP MM NADINE 1974-08-15 12:00:00 TS 15.7571 130.886 990 tokyo main 708 702 OOOO_____OOO__ jtwc_wp WP171974 15.7000 130.800 40 0 16.0000 131.000 9 990 0 0 0 15.8000 131.000 2 38 994 15.7000 131.000 TS 35 990 15.7000 130.800 TC 40 15.7000 130.800 2 40 15.7000 130.800 40 990 180 21 100
1974227N17126 1974 80 WP MM NADINE 1974-08-15 15:00:00 TS 15.5504 132.032 main 798 798 PPPP_____PPP__ WP171974 15.5621 131.970 42 0 15.5320 132.050 9 987 0 0 15.5977 132.221 2 43 992 15.4813 131.948 TS 37 987 15.5621 131.970 TC 42 15.5555 132.097 2 42 15.5621 131.970 42 989 180 23 98
1974227N17126 1974 80 WP MM NADINE 1974-08-15 18:00:00 TS 15.4392 133.238 985 tokyo main 905 905 OOOO_____OPO__ jtwc_wp WP171974 15.5000 133.200 45 0 15.2000 133.200 9 985 0 0 0 15.5000 133.500 3 48 990 15.4000 133.000 TS 40 985 15.5000 133.200 TC 45 15.4744 133.365 2 45 15.5000 133.200 45 989 180 24 91
1974227N17126 1974 80 WP MM NADINE 1974-08-15 21:00:00 TS 15.4971 134.504 main 1039 1039 PPPP_____PPP__ WP171974 15.5175 134.480 47 0 15.3652 134.456 9 982 0 0 15.5448 134.710 3 53 986 15.5108 134.342 TS 42 982 15.5175 134.480 TC 47 15.5060 134.576 2 47 15.5175 134.480 47 986 180 24 83
1974227N17126 1974 80 WP MM NADINE 1974-08-16 00:00:00 TS 15.7429 135.714 980 tokyo main 1168 1168 OOOO_____OOO__ jtwc_wp WP171974 15.7000 135.700 50 0 15.8000 135.700 9 980 0 0 0 15.8000 135.800 3 58 982 15.8000 135.700 TS 45 980 15.7000 135.700 TC 50 15.7000 135.700 2 50 15.7000 135.700 50 983 180 23 74
1974227N17126 1974 80 WP MM NADINE 1974-08-16 03:00:00 TS 16.1359 136.762 main 1294 1294 PPPP_____PPP__ WP171974 16.0593 136.760 50 0 16.2394 136.810 9 982 0 0 16.2886 136.658 3 58 983 16.1815 136.810 TS 45 982 16.0593 136.760 TC 50 16.0636 136.774 2 47 16.0593 136.760 50 985 180 21 64
1974227N17126 1974 80 WP MM NADINE 1974-08-16 06:00:00 TS 16.6848 137.708 985 tokyo main 1407 1407 OOOO_____OPO__ jtwc_wp WP171974 16.6000 137.700 50 0 16.8000 137.800 9 985 0 0 0 16.9000 137.500 3 58 985 16.7000 137.800 TS 45 985 16.6000 137.700 TC 50 16.5937 137.757 2 45 16.6000 137.700 50 987 180 22 57
1974227N17126 1974 80 WP MM NADINE 1974-08-16 09:00:00 TS 17.3074 138.659 main 1529 1529 PPPP_____PPP__ WP171974 17.2397 138.603 45 0 17.4846 138.717 9 987 0 0 17.4060 138.638 3 53 987 17.2899 138.810 TS 40 987 17.2397 138.603 TC 45 17.2519 138.637 2 42 17.2397 138.603 45 990 180 22 52
1974227N17126 1974 80 WP MM NADINE 1974-08-16 12:00:00 TS 18.0286 139.500 990 tokyo main 1636 1636 OOOO_____OOO__ jtwc_wp WP171974 18.0000 139.400 40 0 18.2000 139.500 9 990 0 0 0 18.0000 139.700 3 48 990 18.0000 139.700 TS 35 990 18.0000 139.400 TC 40 18.0000 139.400 2 40 18.0000 139.400 40 993 180 21 45
1974227N17126 1974 80 WP MM NADINE 1974-08-16 15:00:00 TS 18.7986 140.218 main 1661 1618 PPPP_____PPP__ WP171974 18.8273 140.118 42 0 18.7547 140.169 9 992 0 0 18.7967 140.420 3 48 990 18.8197 140.447 TS 37 992 18.8273 140.118 TC 42 18.7373 140.136 2 41 18.8273 140.118 42 993 180 20 37
1974227N17126 1974 80 WP MM NADINE 1974-08-16 18:00:00 TS 19.6366 140.778 994 tokyo main 1618 1546 OOOO_____OPO__ jtwc_wp WP171974 19.7000 140.700 45 0 19.4000 140.700 9 994 0 0 0 19.7000 140.900 3 48 990 19.7000 141.000 TS 40 995 19.7000 140.700 TC 45 19.5564 140.747 2 42 19.7000 140.700 45 994 180 20 29
1974227N17126 1974 80 WP MM NADINE 1974-08-16 21:00:00 TS 20.4930 141.230 main 1535 1452 PPPP_____PPP__ WP171974 20.5198 141.183 45 0 20.3325 141.175 9 993 0 0 20.5848 141.298 3 48 990 20.5272 141.383 TS 40 992 20.5198 141.183 TC 45 20.4473 141.210 2 43 20.5198 141.183 45 993 180 19 21
1974227N17126 1974 80 WP MM NADINE 1974-08-17 00:00:00 TS 21.4143 141.514 992 tokyo main 1452 1357 OOOO_____OOO__ jtwc_wp WP171974 21.4000 141.500 45 0 21.4000 141.500 9 992 0 0 0 21.5000 141.500 3 48 990 21.4000 141.600 TS 40 990 21.4000 141.500 TC 45 21.4000 141.500 2 45 21.4000 141.500 45 992 180 20 12
1974227N17126 1974 80 WP MM NADINE 1974-08-17 03:00:00 TS 22.4091 141.668 main 1357 1255 PPPP_____PPP__ WP171974 22.4198 141.697 42 0 22.4273 141.690 9 991 0 0 22.4424 141.518 3 48 990 22.3550 141.753 TS 37 991 22.4198 141.697 TC 42 22.3794 141.621 2 42 22.4198 141.697 42 991 180 21 4
1974227N17126 1974 80 WP MM NADINE 1974-08-17 06:00:00 TS 23.4595 141.653 990 tokyo main 1245 1136 OOOO_____OPO__ jtwc_wp WP171974 23.5000 141.700 40 0 23.5000 141.700 9 990 0 0 0 23.4000 141.400 3 48 990 23.4000 141.800 TS 35 992 23.5000 141.700 TC 40 23.4167 141.571 2 40 23.5000 141.700 40 991 180 21 356
1974227N17126 1974 80 WP MM NADINE 1974-08-17 09:00:00 TS 24.5216 141.495 main 1136 1029 PPPP_____PPP__ WP171974 24.5427 141.481 37 0 24.6501 141.539 9 992 0 0 24.3500 141.280 3 48 992 24.5275 141.795 TS 32 993 24.5427 141.481 TC 37 24.4957 141.411 2 37 24.5427 141.481 37 992 180 22 351
1974227N17126 1974 80 WP MM NADINE 1974-08-17 12:00:00 TS 25.6000 141.271 994 tokyo main 1019 913 OOOO_____OOO__ jtwc_wp WP171974 25.6000 141.200 35 0 25.8000 141.300 9 994 0 0 0 25.3000 141.100 3 48 994 25.7000 141.700 TD 30 994 25.6000 141.200 TC 35 25.6000 141.200 2 35 25.6000 141.200 35 993 180 22 351
1974227N17126 1974 80 WP MM NADINE 1974-08-17 15:00:00 TS 26.6840 141.127 main 904 797 PPPP_____PPP__ WP171974 26.6848 141.106 32 -1 26.8873 141.171 9 995 0 0 26.2425 140.865 3 43 995 26.8874 141.545 TD 27 995 26.6848 141.106 TC 32 26.7162 140.991 2 33 26.6848 141.106 32 994 150 22 353
1974227N17126 1974 80 WP MM NADINE 1974-08-17 18:00:00 TS 27.7600 140.962 996 tokyo main 786 671 OOOO_____OPO__ jtwc_wp WP171974 27.8000 141.000 30 -1 27.9000 141.000 9 996 0 0 0 27.2000 140.600 2 38 996 28.0000 141.300 TD 25 996 27.8000 141.000 TC 30 27.8400 140.791 2 32 27.8000 141.000 30 996 120 22 350
1974227N17126 1974 80 WP MM NADINE 1974-08-17 21:00:00 TS 28.8560 140.697 main 660 556 PPPP_____PPP__ WP171974 29.0175 140.738 30 -1 28.8601 140.673 9 998 0 0 28.2074 140.357 2 38 997 28.9598 140.987 TD 25 998 29.0175 140.738 TC 30 28.9690 140.595 2 31 29.0175 140.738 30 998 120 21 346
1974227N17126 1974 80 WP MM NADINE 1974-08-18 00:00:00 TS 29.8143 140.367 1000 tokyo main 556 470 OOOO_____OOO__ jtwc_wp WP171974 30.1000 140.400 30 -1 29.7000 140.300 9 1000 0 0 0 29.2000 140.100 2 38 998 29.8000 140.600 TD 25 1000 30.1000 140.400 TC 30 30.1000 140.400 1 30 30.1000 140.400 30 1000 120 18 341
1974227N17126 1974 80 WP MM NADINE 1974-08-18 03:00:00 TS 30.5537 140.011 main 459 388 PPPP_____P_P__ WP171974 30.8526 140.050 27 -1 30.3925 139.980 9 1001 0 0 30.1525 139.800 2 33 1000 30.5873 140.179 TD 25 1001 30.8526 140.050 TC 27 1 30.8526 140.050 27 1001 90 15 336
1974227N17126 1974 80 WP MM NADINE 1974-08-18 06:00:00 TS 31.2100 139.640 1002 tokyo main 386 314 OOOO_____O_O__ jtwc_wp WP171974 31.4000 139.700 25 -1 31.0000 139.700 2 1002 0 0 0 31.0000 139.500 1 29 1002 31.3000 139.700 TD 25 1002 31.4000 139.700 TC 25 1 31.4000 139.700 25 1002 60 15 332
1974227N17126 1974 80 WP MM NADINE 1974-08-18 09:00:00 TS 31.8290 139.202 main 314 245 __PP__________ WP171974 -1 2 0 0 31.6950 139.238 1 24 1002 31.9631 139.167 TD 25 1002 TC 1 14 330
1974227N17126 1974 80 WP MM NADINE 1974-08-18 12:00:00 TS 32.4500 138.800 main 234 __OO__________ -1 32.3000 139.000 0 19 1002 32.6000 138.600 TD 25 1002 14 331

Digital Typhoon Data and Search

About IBTrACS Database

This database is a web-friendly format of International Best Track Archive for Climate Stewardship (IBTrACS), a global best track data archive curated by NOAA dating back to 1842.

Updated: 2021-12-03